Dighton, MA

2:04 AM EDT on October 01, 2016 (GMT -0400)
Richmond Hill | | Change Station

Elev 140 ft 41.81 °N, 71.13 °W | Updated 2 minutes ago

Light Rain
Light Rain Mist
57.7 °F
Feels Like 57.7 °F
N
3.0
Wind Variable Wind from ENE

Today
High -- | Low -- °F
--% Chance of Precip.
Yesterday
High -- | Low -- °F
Precip. -- in
Pressure 30.28 in
Visibility 3.0 miles
Clouds Mostly Cloudy 700 ft
Overcast 1100 ft
Dew Point 56 °F
Humidity 93%
Rainfall 0.14 in
Snow Depth Not available.
6:41 AM 6:25 PM
New Moon, 0% visible
METAR KTAN 010552Z AUTO 05005KT 3SM -RA BR BKN007 OVC011 14/14 A3028 RMK AO2 SLP253 P0005 60024 T01440139 10144 20139 56014
Pressure 30.28 in
Visibility 3.0 miles
Clouds Mostly Cloudy 700 ft
Overcast 1100 ft
Dew Point 56 °F
Humidity 93%
Rainfall 0.14 in
Snow Depth Not available.
6:41 AM 6:25 PM
New Moon, 0% visible
METAR KTAN 010552Z AUTO 05005KT 3SM -RA BR BKN007 OVC011 14/14 A3028 RMK AO2 SLP253 P0005 60024 T01440139 10144 20139 56014

10-Day Weather Forecast

Almanac

Astronomy

Oct. 01, 2016 Rise Set
Actual Time
Civil Twilight
Nautical Twilight
Astronomical Twilight
Moon
Length of Visible Light
Length of Day
Tomorrow will be .
, % of the Moon is Illuminated

Today's Extremes

State Highs State Lows

Community

WunderPhotos

Upload Photos

1,942,898 photos uploaded!

WunderBlog® & News

Nearby

Air Quality

  Air Quality AQ Index Pollutant
Not available.

Snow Depth

Station Depth Elevation

Earthquake Activity

City Distance Mag. Time & Date
Minimum magnitude displayed is 2.5.

Coastal Water Temperatures

Place Temperature

Stations

Nearby Weather Stations

Station Location Temp. Windchill Dew Point Humidity Wind Precip. Elev Updated Type
                   

Watches & Warnings

There are currently no watches in effect.